sensor_id;sensor_type;location;lat;lon;timestamp;pressure;altitude;pressure_sealevel;temperature;humidity
37860;BME280;23698;52.014;5.190;2023-03-14T00:00:26;98624.13;;;10.38;100.00
37860;BME280;23698;52.014;5.190;2023-03-14T00:03:13;98618.88;;;10.48;100.00
37860;BME280;23698;52.014;5.190;2023-03-14T00:06:01;98604.84;;;10.51;100.00
37860;BME280;23698;52.014;5.190;2023-03-14T00:08:48;98592.94;;;10.52;100.00
37860;BME280;23698;52.014;5.190;2023-03-14T00:11:34;98590.16;;;10.47;100.00
37860;BME280;23698;52.014;5.190;2023-03-14T00:14:22;98563.97;;;10.53;100.00
37860;BME280;23698;52.014;5.190;2023-03-14T00:17:09;98573.22;;;10.57;100.00
37860;BME280;23698;52.014;5.190;2023-03-14T00:19:56;98545.56;;;10.55;100.00
37860;BME280;23698;52.014;5.190;2023-03-14T00:22:52;98544.50;;;10.56;100.00
37860;BME280;23698;52.014;5.190;2023-03-14T00:25:38;98538.78;;;10.52;100.00
37860;BME280;23698;52.014;5.190;2023-03-14T00:28:24;98540.75;;;10.40;100.00
37860;BME280;23698;52.014;5.190;2023-03-14T00:31:14;98541.72;;;10.34;100.00
37860;BME280;23698;52.014;5.190;2023-03-14T00:34:01;98543.69;;;10.38;100.00
37860;BME280;23698;52.014;5.190;2023-03-14T00:36:49;98551.00;;;10.38;100.00
37860;BME280;23698;52.014;5.190;2023-03-14T00:39:35;98563.38;;;10.34;100.00
37860;BME280;23698;52.014;5.190;2023-03-14T00:42:21;98563.03;;;10.30;100.00
37860;BME280;23698;52.014;5.190;2023-03-14T00:45:09;98565.16;;;10.28;100.00
37860;BME280;23698;52.014;5.190;2023-03-14T00:47:57;98565.31;;;10.21;100.00
37860;BME280;23698;52.014;5.190;2023-03-14T00:50:44;98571.06;;;10.08;100.00
37860;BME280;23698;52.014;5.190;2023-03-14T00:53:35;98591.13;;;9.95;100.00
37860;BME280;23698;52.014;5.190;2023-03-14T00:56:22;98610.31;;;9.94;100.00
37860;BME280;23698;52.014;5.190;2023-03-14T00:59:08;98616.13;;;9.86;100.00
37860;BME280;23698;52.014;5.190;2023-03-14T01:01:55;98628.88;;;9.73;100.00
37860;BME280;23698;52.014;5.190;2023-03-14T01:04:43;98657.13;;;9.66;100.00
37860;BME280;23698;52.014;5.190;2023-03-14T01:07:30;98693.84;;;9.50;100.00
37860;BME280;23698;52.014;5.190;2023-03-14T01:10:16;98719.84;;;9.39;100.00
37860;BME280;23698;52.014;5.190;2023-03-14T01:13:02;98765.91;;;9.20;100.00
37860;BME280;23698;52.014;5.190;2023-03-14T01:15:49;98815.38;;;9.09;100.00
37860;BME280;23698;52.014;5.190;2023-03-14T01:18:37;98859.78;;;9.01;100.00
37860;BME280;23698;52.014;5.190;2023-03-14T01:21:27;98909.78;;;8.92;100.00
37860;BME280;23698;52.014;5.190;2023-03-14T01:24:13;98953.47;;;8.89;100.00
37860;BME280;23698;52.014;5.190;2023-03-14T01:26:59;98993.88;;;8.84;100.00
37860;BME280;23698;52.014;5.190;2023-03-14T01:29:46;99033.94;;;8.87;100.00
37860;BME280;23698;52.014;5.190;2023-03-14T01:32:34;99074.03;;;8.90;100.00
37860;BME280;23698;52.014;5.190;2023-03-14T01:35:21;99109.34;;;8.95;100.00
37860;BME280;23698;52.014;5.190;2023-03-14T01:38:09;99140.47;;;8.98;100.00
37860;BME280;23698;52.014;5.190;2023-03-14T01:40:56;99181.25;;;8.96;100.00
37860;BME280;23698;52.014;5.190;2023-03-14T01:43:43;99183.28;;;9.01;100.00
37860;BME280;23698;52.014;5.190;2023-03-14T01:46:38;99208.66;;;9.00;100.00
37860;BME280;23698;52.014;5.190;2023-03-14T01:49:27;99223.84;;;9.01;100.00
37860;BME280;23698;52.014;5.190;2023-03-14T01:52:25;99217.59;;;9.00;100.00
37860;BME280;23698;52.014;5.190;2023-03-14T01:55:17;99216.84;;;8.93;100.00
37860;BME280;23698;52.014;5.190;2023-03-14T01:58:07;99228.72;;;8.85;100.00
37860;BME280;23698;52.014;5.190;2023-03-14T02:00:55;99232.66;;;8.90;100.00
37860;BME280;23698;52.014;5.190;2023-03-14T02:03:47;99241.00;;;8.88;100.00
37860;BME280;23698;52.014;5.190;2023-03-14T02:06:40;99251.41;;;8.84;100.00
37860;BME280;23698;52.014;5.190;2023-03-14T02:09:30;99268.44;;;8.85;100.00
37860;BME280;23698;52.014;5.190;2023-03-14T02:12:20;99278.81;;;8.88;100.00
37860;BME280;23698;52.014;5.190;2023-03-14T02:15:12;99286.53;;;8.84;100.00
37860;BME280;23698;52.014;5.190;2023-03-14T02:18:13;99295.91;;;8.82;100.00
37860;BME280;23698;52.014;5.190;2023-03-14T02:21:44;99292.97;;;8.83;100.00
37860;BME280;23698;52.014;5.190;2023-03-14T02:24:42;99300.28;;;8.83;100.00
37860;BME280;23698;52.014;5.190;2023-03-14T02:27:34;99310.88;;;8.84;100.00
37860;BME280;23698;52.014;5.190;2023-03-14T02:30:22;99316.06;;;8.86;100.00
37860;BME280;23698;52.014;5.190;2023-03-14T02:33:11;99321.84;;;8.90;100.00
37860;BME280;23698;52.014;5.190;2023-03-14T02:36:04;99317.91;;;8.85;100.00
37860;BME280;23698;52.014;5.190;2023-03-14T02:38:55;99318.19;;;8.77;100.00
37860;BME280;23698;52.014;5.190;2023-03-14T02:41:45;99335.00;;;8.79;100.00
37860;BME280;23698;52.014;5.190;2023-03-14T02:44:36;99336.25;;;8.77;100.00
37860;BME280;23698;52.014;5.190;2023-03-14T02:47:27;99343.94;;;8.80;100.00
37860;BME280;23698;52.014;5.190;2023-03-14T02:50:16;99349.13;;;8.81;100.00
37860;BME280;23698;52.014;5.190;2023-03-14T02:53:04;99349.34;;;8.80;100.00
37860;BME280;23698;52.014;5.190;2023-03-14T02:55:51;99361.41;;;8.77;100.00
37860;BME280;23698;52.014;5.190;2023-03-14T02:58:40;99363.28;;;8.77;100.00
37860;BME280;23698;52.014;5.190;2023-03-14T03:01:40;99381.34;;;8.83;100.00
37860;BME280;23698;52.014;5.190;2023-03-14T03:04:26;99364.91;;;8.84;100.00
37860;BME280;23698;52.014;5.190;2023-03-14T03:07:12;99372.34;;;8.89;100.00
37860;BME280;23698;52.014;5.190;2023-03-14T03:09:59;99368.63;;;8.90;100.00
37860;BME280;23698;52.014;5.190;2023-03-14T03:12:46;99372.72;;;8.99;100.00
37860;BME280;23698;52.014;5.190;2023-03-14T03:15:33;99360.25;;;8.98;100.00
37860;BME280;23698;52.014;5.190;2023-03-14T03:18:21;99354.00;;;8.98;100.00
37860;BME280;23698;52.014;5.190;2023-03-14T03:21:07;99339.25;;;9.00;100.00
37860;BME280;23698;52.014;5.190;2023-03-14T03:23:54;99340.66;;;9.03;100.00
37860;BME280;23698;52.014;5.190;2023-03-14T03:26:40;99327.28;;;9.15;100.00
37860;BME280;23698;52.014;5.190;2023-03-14T03:29:28;99311.53;;;9.05;100.00
37860;BME280;23698;52.014;5.190;2023-03-14T03:32:15;99300.16;;;8.96;100.00
37860;BME280;23698;52.014;5.190;2023-03-14T03:35:04;99294.06;;;9.07;100.00
37860;BME280;23698;52.014;5.190;2023-03-14T03:37:55;99284.06;;;9.08;100.00
37860;BME280;23698;52.014;5.190;2023-03-14T03:40:41;99266.28;;;9.19;100.00
37860;BME280;23698;52.014;5.190;2023-03-14T03:43:28;99259.03;;;9.19;100.00
37860;BME280;23698;52.014;5.190;2023-03-14T03:46:15;99230.50;;;9.23;100.00
37860;BME280;23698;52.014;5.190;2023-03-14T03:49:02;99204.44;;;9.29;100.00
37860;BME280;23698;52.014;5.190;2023-03-14T03:51:50;99178.91;;;9.25;100.00
37860;BME280;23698;52.014;5.190;2023-03-14T03:54:37;99168.69;;;9.27;100.00
37860;BME280;23698;52.014;5.190;2023-03-14T03:57:23;99137.44;;;9.31;100.00
37860;BME280;23698;52.014;5.190;2023-03-14T04:00:11;99119.13;;;9.33;100.00
37860;BME280;23698;52.014;5.190;2023-03-14T04:03:00;99096.41;;;9.34;100.00
37860;BME280;23698;52.014;5.190;2023-03-14T04:05:58;99082.66;;;9.36;100.00
37860;BME280;23698;52.014;5.190;2023-03-14T04:08:46;99067.03;;;9.38;100.00
37860;BME280;23698;52.014;5.190;2023-03-14T04:11:52;99044.97;;;9.41;100.00
37860;BME280;23698;52.014;5.190;2023-03-14T04:14:38;99040.72;;;9.45;100.00
37860;BME280;23698;52.014;5.190;2023-03-14T04:17:33;99021.22;;;9.43;100.00
37860;BME280;23698;52.014;5.190;2023-03-14T04:20:20;99012.50;;;9.41;100.00
37860;BME280;23698;52.014;5.190;2023-03-14T04:23:07;98992.91;;;9.45;100.00
37860;BME280;23698;52.014;5.190;2023-03-14T04:25:55;98987.63;;;9.51;100.00
37860;BME280;23698;52.014;5.190;2023-03-14T04:28:43;98971.97;;;9.53;100.00
37860;BME280;23698;52.014;5.190;2023-03-14T04:31:30;98957.75;;;9.57;100.00
37860;BME280;23698;52.014;5.190;2023-03-14T04:34:17;98942.81;;;9.55;100.00
37860;BME280;23698;52.014;5.190;2023-03-14T04:37:10;98938.44;;;9.54;100.00
37860;BME280;23698;52.014;5.190;2023-03-14T04:39:59;98923.78;;;9.61;100.00
37860;BME280;23698;52.014;5.190;2023-03-14T04:42:52;98915.66;;;9.61;100.00
37860;BME280;23698;52.014;5.190;2023-03-14T04:45:41;98906.97;;;9.59;100.00
37860;BME280;23698;52.014;5.190;2023-03-14T04:48:28;98907.91;;;9.65;100.00
37860;BME280;23698;52.014;5.190;2023-03-14T04:51:16;98892.59;;;9.59;100.00
37860;BME280;23698;52.014;5.190;2023-03-14T04:54:03;98901.78;;;9.58;100.00
37860;BME280;23698;52.014;5.190;2023-03-14T04:56:50;98906.34;;;9.45;100.00
37860;BME280;23698;52.014;5.190;2023-03-14T04:59:38;98924.44;;;9.45;100.00
37860;BME280;23698;52.014;5.190;2023-03-14T05:02:43;98934.88;;;9.41;100.00
37860;BME280;23698;52.014;5.190;2023-03-14T05:05:51;98948.91;;;9.38;100.00
37860;BME280;23698;52.014;5.190;2023-03-14T05:09:04;98967.69;;;9.33;100.00
37860;BME280;23698;52.014;5.190;2023-03-14T05:11:53;99001.03;;;9.27;100.00
37860;BME280;23698;52.014;5.190;2023-03-14T05:15:10;99020.41;;;9.24;100.00
37860;BME280;23698;52.014;5.190;2023-03-14T05:18:07;99037.34;;;9.01;100.00
37860;BME280;23698;52.014;5.190;2023-03-14T05:21:13;99088.03;;;9.05;100.00
37860;BME280;23698;52.014;5.190;2023-03-14T05:24:09;99122.25;;;8.93;100.00
37860;BME280;23698;52.014;5.190;2023-03-14T05:27:25;99151.13;;;8.93;100.00
37860;BME280;23698;52.014;5.190;2023-03-14T05:30:33;99187.31;;;8.92;100.00
37860;BME280;23698;52.014;5.190;2023-03-14T05:33:49;99213.50;;;8.91;100.00
37860;BME280;23698;52.014;5.190;2023-03-14T05:36:49;99244.34;;;8.83;100.00
37860;BME280;23698;52.014;5.190;2023-03-14T05:39:45;99273.69;;;8.80;100.00
37860;BME280;23698;52.014;5.190;2023-03-14T05:42:53;99293.22;;;8.75;100.00
37860;BME280;23698;52.014;5.190;2023-03-14T05:46:00;99313.59;;;8.78;100.00
37860;BME280;23698;52.014;5.190;2023-03-14T05:48:56;99345.03;;;8.72;100.00
37860;BME280;23698;52.014;5.190;2023-03-14T05:52:03;99372.22;;;8.77;100.00
37860;BME280;23698;52.014;5.190;2023-03-14T05:55:08;99412.56;;;8.72;100.00
37860;BME280;23698;52.014;5.190;2023-03-14T05:58:14;99426.28;;;8.77;100.00
37860;BME280;23698;52.014;5.190;2023-03-14T06:01:12;99454.34;;;8.69;100.00
37860;BME280;23698;52.014;5.190;2023-03-14T06:04:19;99459.31;;;8.79;100.00
37860;BME280;23698;52.014;5.190;2023-03-14T06:07:11;99474.44;;;8.80;100.00
37860;BME280;23698;52.014;5.190;2023-03-14T06:09:57;99483.00;;;8.77;100.00
37860;BME280;23698;52.014;5.190;2023-03-14T06:12:44;99496.47;;;8.84;100.00
37860;BME280;23698;52.014;5.190;2023-03-14T06:15:35;99497.53;;;8.83;100.00
37860;BME280;23698;52.014;5.190;2023-03-14T06:18:25;99508.72;;;8.93;100.00
37860;BME280;23698;52.014;5.190;2023-03-14T06:21:13;99509.56;;;8.87;100.00
37860;BME280;23698;52.014;5.190;2023-03-14T06:24:02;99537.88;;;8.84;100.00
37860;BME280;23698;52.014;5.190;2023-03-14T06:26:55;99550.78;;;8.76;100.00
37860;BME280;23698;52.014;5.190;2023-03-14T06:29:42;99597.97;;;8.53;100.00
37860;BME280;23698;52.014;5.190;2023-03-14T06:32:28;99599.81;;;8.39;100.00
37860;BME280;23698;52.014;5.190;2023-03-14T06:35:20;99610.19;;;8.02;100.00
37860;BME280;23698;52.014;5.190;2023-03-14T06:38:07;99617.00;;;7.98;100.00
37860;BME280;23698;52.014;5.190;2023-03-14T06:40:55;99618.47;;;7.94;100.00
37860;BME280;23698;52.014;5.190;2023-03-14T06:43:51;99637.34;;;7.94;100.00
37860;BME280;23698;52.014;5.190;2023-03-14T06:46:40;99637.56;;;7.92;100.00
37860;BME280;23698;52.014;5.190;2023-03-14T06:49:27;99647.50;;;7.85;100.00
37860;BME280;23698;52.014;5.190;2023-03-14T06:52:17;99644.94;;;7.64;100.00
37860;BME280;23698;52.014;5.190;2023-03-14T06:55:04;99653.66;;;7.66;100.00
37860;BME280;23698;52.014;5.190;2023-03-14T06:57:51;99670.50;;;7.74;100.00
37860;BME280;23698;52.014;5.190;2023-03-14T07:00:38;99687.25;;;7.63;100.00
37860;BME280;23698;52.014;5.190;2023-03-14T07:03:24;99696.41;;;7.62;100.00
37860;BME280;23698;52.014;5.190;2023-03-14T07:06:13;99695.59;;;7.75;100.00
37860;BME280;23698;52.014;5.190;2023-03-14T07:09:01;99707.19;;;7.62;100.00
37860;BME280;23698;52.014;5.190;2023-03-14T07:11:49;99719.44;;;7.65;100.00
37860;BME280;23698;52.014;5.190;2023-03-14T07:14:36;99726.06;;;7.62;100.00
37860;BME280;23698;52.014;5.190;2023-03-14T07:17:22;99726.88;;;7.63;100.00
37860;BME280;23698;52.014;5.190;2023-03-14T07:20:10;99764.06;;;7.67;100.00
37860;BME280;23698;52.014;5.190;2023-03-14T07:22:57;99761.53;;;7.59;100.00
37860;BME280;23698;52.014;5.190;2023-03-14T07:26:12;99776.63;;;7.53;100.00
37860;BME280;23698;52.014;5.190;2023-03-14T07:29:03;99788.84;;;7.49;100.00
37860;BME280;23698;52.014;5.190;2023-03-14T07:31:50;99799.59;;;7.43;100.00
37860;BME280;23698;52.014;5.190;2023-03-14T07:34:38;99812.63;;;7.39;100.00
37860;BME280;23698;52.014;5.190;2023-03-14T07:37:25;99822.19;;;7.42;100.00
37860;BME280;23698;52.014;5.190;2023-03-14T07:40:11;99834.25;;;7.46;100.00
37860;BME280;23698;52.014;5.190;2023-03-14T07:43:01;99844.59;;;7.42;100.00
37860;BME280;23698;52.014;5.190;2023-03-14T07:46:08;99858.06;;;7.42;100.00
37860;BME280;23698;52.014;5.190;2023-03-14T07:48:54;99858.22;;;7.34;100.00
37860;BME280;23698;52.014;5.190;2023-03-14T07:51:40;99863.47;;;7.42;100.00
37860;BME280;23698;52.014;5.190;2023-03-14T07:54:28;99883.19;;;7.43;100.00
37860;BME280;23698;52.014;5.190;2023-03-14T07:57:15;99883.97;;;7.65;100.00
37860;BME280;23698;52.014;5.190;2023-03-14T08:00:03;99893.06;;;7.57;100.00
37860;BME280;23698;52.014;5.190;2023-03-14T08:02:57;99899.50;;;7.34;100.00
37860;BME280;23698;52.014;5.190;2023-03-14T08:05:43;99900.69;;;7.32;100.00
37860;BME280;23698;52.014;5.190;2023-03-14T08:08:33;99927.72;;;7.38;100.00
37860;BME280;23698;52.014;5.190;2023-03-14T08:11:20;99928.53;;;7.32;100.00
37860;BME280;23698;52.014;5.190;2023-03-14T08:14:06;99925.31;;;7.22;100.00
37860;BME280;23698;52.014;5.190;2023-03-14T08:16:53;99939.34;;;7.17;100.00
37860;BME280;23698;52.014;5.190;2023-03-14T08:19:40;99953.16;;;7.08;100.00
37860;BME280;23698;52.014;5.190;2023-03-14T08:22:27;99974.25;;;6.53;100.00
37860;BME280;23698;52.014;5.190;2023-03-14T08:25:13;100034.34;;;6.00;100.00
37860;BME280;23698;52.014;5.190;2023-03-14T08:28:00;100021.66;;;5.86;100.00
37860;BME280;23698;52.014;5.190;2023-03-14T08:30:46;100030.88;;;5.68;100.00
37860;BME280;23698;52.014;5.190;2023-03-14T08:33:34;100021.38;;;5.58;100.00
37860;BME280;23698;52.014;5.190;2023-03-14T08:36:20;100028.22;;;5.37;100.00
37860;BME280;23698;52.014;5.190;2023-03-14T08:39:08;100066.97;;;5.51;100.00
37860;BME280;23698;52.014;5.190;2023-03-14T08:41:54;100073.09;;;5.37;100.00
37860;BME280;23698;52.014;5.190;2023-03-14T08:44:41;100086.72;;;5.58;100.00
37860;BME280;23698;52.014;5.190;2023-03-14T08:47:28;100100.34;;;5.25;100.00
37860;BME280;23698;52.014;5.190;2023-03-14T08:50:16;100095.47;;;5.29;100.00
37860;BME280;23698;52.014;5.190;2023-03-14T08:53:03;100102.78;;;5.43;100.00
37860;BME280;23698;52.014;5.190;2023-03-14T08:55:53;100114.94;;;5.62;100.00
37860;BME280;23698;52.014;5.190;2023-03-14T08:58:41;100108.19;;;5.66;100.00
37860;BME280;23698;52.014;5.190;2023-03-14T09:01:28;100110.63;;;5.76;100.00
37860;BME280;23698;52.014;5.190;2023-03-14T09:04:15;100131.72;;;5.96;100.00
37860;BME280;23698;52.014;5.190;2023-03-14T09:07:03;100120.25;;;6.02;100.00
37860;BME280;23698;52.014;5.190;2023-03-14T09:09:49;100131.91;;;6.17;100.00
37860;BME280;23698;52.014;5.190;2023-03-14T09:12:36;100108.38;;;5.88;100.00
37860;BME280;23698;52.014;5.190;2023-03-14T09:15:22;100105.34;;;5.91;100.00
37860;BME280;23698;52.014;5.190;2023-03-14T09:18:08;100098.09;;;5.92;100.00
37860;BME280;23698;52.014;5.190;2023-03-14T09:20:55;100069.91;;;5.88;100.00
37860;BME280;23698;52.014;5.190;2023-03-14T09:23:43;100072.59;;;5.88;100.00
37860;BME280;23698;52.014;5.190;2023-03-14T09:26:31;100065.47;;;6.18;100.00
37860;BME280;23698;52.014;5.190;2023-03-14T09:29:18;100042.28;;;6.17;100.00
37860;BME280;23698;52.014;5.190;2023-03-14T09:32:05;100005.88;;;6.21;100.00
37860;BME280;23698;52.014;5.190;2023-03-14T09:34:52;99962.97;;;6.04;100.00
37860;BME280;23698;52.014;5.190;2023-03-14T09:37:38;99945.28;;;6.25;100.00
37860;BME280;23698;52.014;5.190;2023-03-14T09:40:31;99910.28;;;6.25;100.00
37860;BME280;23698;52.014;5.190;2023-03-14T09:43:21;99881.91;;;6.22;100.00
37860;BME280;23698;52.014;5.190;2023-03-14T09:46:09;99865.91;;;6.36;100.00
37860;BME280;23698;52.014;5.190;2023-03-14T09:48:57;99853.94;;;6.23;100.00
37860;BME280;23698;52.014;5.190;2023-03-14T09:51:44;99854.06;;;6.00;100.00
37860;BME280;23698;52.014;5.190;2023-03-14T09:54:34;99863.38;;;5.75;100.00
37860;BME280;23698;52.014;5.190;2023-03-14T09:57:25;99867.69;;;5.84;100.00
37860;BME280;23698;52.014;5.190;2023-03-14T10:00:14;99854.56;;;5.66;100.00
37860;BME280;23698;52.014;5.190;2023-03-14T10:03:20;99865.34;;;5.81;100.00
37860;BME280;23698;52.014;5.190;2023-03-14T10:06:10;99893.03;;;6.19;100.00
37860;BME280;23698;52.014;5.190;2023-03-14T10:08:57;99895.78;;;6.41;100.00
37860;BME280;23698;52.014;5.190;2023-03-14T10:11:43;99903.31;;;6.31;100.00
37860;BME280;23698;52.014;5.190;2023-03-14T10:14:34;99922.91;;;6.39;100.00
37860;BME280;23698;52.014;5.190;2023-03-14T10:17:21;99932.00;;;6.23;100.00
37860;BME280;23698;52.014;5.190;2023-03-14T10:20:26;99951.38;;;6.04;100.00
37860;BME280;23698;52.014;5.190;2023-03-14T10:23:24;99961.13;;;5.67;100.00
37860;BME280;23698;52.014;5.190;2023-03-14T10:26:15;99998.13;;;5.65;100.00
37860;BME280;23698;52.014;5.190;2023-03-14T10:29:07;100017.94;;;5.64;100.00
37860;BME280;23698;52.014;5.190;2023-03-14T10:31:58;100050.41;;;5.85;100.00
37860;BME280;23698;52.014;5.190;2023-03-14T10:35:05;100050.59;;;5.84;100.00
37860;BME280;23698;52.014;5.190;2023-03-14T10:37:53;100068.13;;;6.03;100.00
37860;BME280;23698;52.014;5.190;2023-03-14T10:40:47;100067.97;;;6.19;100.00
37860;BME280;23698;52.014;5.190;2023-03-14T10:43:36;100049.25;;;6.26;100.00
37860;BME280;23698;52.014;5.190;2023-03-14T10:46:25;100044.25;;;6.38;100.00
37860;BME280;23698;52.014;5.190;2023-03-14T10:49:35;99998.78;;;6.43;100.00
37860;BME280;23698;52.014;5.190;2023-03-14T10:52:23;99969.00;;;6.81;100.00
37860;BME280;23698;52.014;5.190;2023-03-14T10:55:39;99965.09;;;7.20;100.00
37860;BME280;23698;52.014;5.190;2023-03-14T10:58:27;99903.34;;;6.67;100.00
37860;BME280;23698;52.014;5.190;2023-03-14T11:01:28;99890.84;;;5.70;100.00
37860;BME280;23698;52.014;5.190;2023-03-14T11:04:38;99918.41;;;5.11;100.00
37860;BME280;23698;52.014;5.190;2023-03-14T11:07:30;99950.03;;;5.01;100.00
37860;BME280;23698;52.014;5.190;2023-03-14T11:10:24;99961.72;;;5.08;100.00
37860;BME280;23698;52.014;5.190;2023-03-14T11:13:16;99973.47;;;5.38;100.00
37860;BME280;23698;52.014;5.190;2023-03-14T11:16:09;99975.41;;;5.67;100.00
37860;BME280;23698;52.014;5.190;2023-03-14T11:19:12;99970.81;;;5.99;100.00
37860;BME280;23698;52.014;5.190;2023-03-14T11:22:05;99966.88;;;6.02;100.00
37860;BME280;23698;52.014;5.190;2023-03-14T11:25:14;99960.28;;;6.04;100.00
37860;BME280;23698;52.014;5.190;2023-03-14T11:28:09;99950.13;;;6.30;100.00
37860;BME280;23698;52.014;5.190;2023-03-14T11:31:05;99943.69;;;6.46;100.00
37860;BME280;23698;52.014;5.190;2023-03-14T11:34:01;99917.22;;;6.49;100.00
37860;BME280;23698;52.014;5.190;2023-03-14T11:36:59;99904.50;;;6.94;100.00
37860;BME280;23698;52.014;5.190;2023-03-14T11:39:54;99874.13;;;7.50;100.00
37860;BME280;23698;52.014;5.190;2023-03-14T11:42:47;99817.97;;;7.61;100.00
37860;BME280;23698;52.014;5.190;2023-03-14T11:45:38;99767.66;;;7.18;100.00
37860;BME280;23698;52.014;5.190;2023-03-14T11:48:30;99735.25;;;6.83;100.00
37860;BME280;23698;52.014;5.190;2023-03-14T11:51:23;99736.31;;;6.82;100.00
37860;BME280;23698;52.014;5.190;2023-03-14T11:54:15;99720.53;;;7.07;100.00
37860;BME280;23698;52.014;5.190;2023-03-14T11:57:05;99705.16;;;7.71;100.00
37860;BME280;23698;52.014;5.190;2023-03-14T12:00:02;99696.06;;;7.85;100.00
37860;BME280;23698;52.014;5.190;2023-03-14T12:03:06;99708.16;;;8.03;100.00
37860;BME280;23698;52.014;5.190;2023-03-14T12:06:02;99700.53;;;7.65;100.00
37860;BME280;23698;52.014;5.190;2023-03-14T12:08:52;99701.59;;;7.64;100.00
37860;BME280;23698;52.014;5.190;2023-03-14T12:11:43;99703.88;;;8.35;100.00
37860;BME280;23698;52.014;5.190;2023-03-14T12:14:35;99718.78;;;8.18;100.00
37860;BME280;23698;52.014;5.190;2023-03-14T12:17:25;99722.13;;;8.26;100.00
37860;BME280;23698;52.014;5.190;2023-03-14T12:20:16;99719.88;;;8.30;100.00
37860;BME280;23698;52.014;5.190;2023-03-14T12:23:05;99719.94;;;8.77;100.00
37860;BME280;23698;52.014;5.190;2023-03-14T12:26:07;99736.34;;;8.48;100.00
37860;BME280;23698;52.014;5.190;2023-03-14T12:29:11;99745.91;;;8.58;100.00
37860;BME280;23698;52.014;5.190;2023-03-14T12:32:12;99751.97;;;8.80;100.00
37860;BME280;23698;52.014;5.190;2023-03-14T12:35:35;99764.09;;;8.29;100.00
37860;BME280;23698;52.014;5.190;2023-03-14T12:38:28;99775.69;;;8.23;100.00
37860;BME280;23698;52.014;5.190;2023-03-14T12:41:19;99779.22;;;8.17;100.00
37860;BME280;23698;52.014;5.190;2023-03-14T12:44:39;99800.13;;;8.01;100.00
37860;BME280;23698;52.014;5.190;2023-03-14T12:47:41;99806.66;;;7.79;100.00
37860;BME280;23698;52.014;5.190;2023-03-14T12:50:34;99797.84;;;8.46;100.00
37860;BME280;23698;52.014;5.190;2023-03-14T12:53:52;99812.63;;;8.57;100.00
37860;BME280;23698;52.014;5.190;2023-03-14T12:56:46;99820.59;;;8.24;100.00
37860;BME280;23698;52.014;5.190;2023-03-14T12:59:35;99911.81;;;8.00;100.00
37860;BME280;23698;52.014;5.190;2023-03-14T13:02:27;99949.81;;;7.99;100.00
37860;BME280;23698;52.014;5.190;2023-03-14T13:05:16;99950.97;;;8.53;100.00
37860;BME280;23698;52.014;5.190;2023-03-14T13:08:06;99973.44;;;8.53;100.00
37860;BME280;23698;52.014;5.190;2023-03-14T13:10:56;100008.56;;;8.25;100.00
37860;BME280;23698;52.014;5.190;2023-03-14T13:13:46;100016.16;;;7.86;100.00
37860;BME280;23698;52.014;5.190;2023-03-14T13:16:35;100054.13;;;7.85;100.00
37860;BME280;23698;52.014;5.190;2023-03-14T13:19:24;100060.81;;;7.67;100.00
37860;BME280;23698;52.014;5.190;2023-03-14T13:22:17;100072.25;;;7.69;100.00
37860;BME280;23698;52.014;5.190;2023-03-14T13:25:07;100098.31;;;7.62;100.00
37860;BME280;23698;52.014;5.190;2023-03-14T13:27:57;100114.00;;;7.22;100.00
37860;BME280;23698;52.014;5.190;2023-03-14T13:30:46;100144.94;;;7.26;100.00
37860;BME280;23698;52.014;5.190;2023-03-14T13:33:33;100151.75;;;7.22;100.00
37860;BME280;23698;52.014;5.190;2023-03-14T13:36:21;100157.88;;;7.31;100.00
37860;BME280;23698;52.014;5.190;2023-03-14T13:39:10;100166.97;;;7.30;100.00
37860;BME280;23698;52.014;5.190;2023-03-14T13:42:00;100173.03;;;7.32;100.00
37860;BME280;23698;52.014;5.190;2023-03-14T13:44:48;100188.44;;;7.53;100.00
37860;BME280;23698;52.014;5.190;2023-03-14T13:47:38;100195.81;;;7.96;100.00
37860;BME280;23698;52.014;5.190;2023-03-14T13:50:25;100215.13;;;8.36;100.00
37860;BME280;23698;52.014;5.190;2023-03-14T13:53:12;100233.09;;;8.43;100.00
37860;BME280;23698;52.014;5.190;2023-03-14T13:56:01;100255.75;;;8.42;100.00
37860;BME280;23698;52.014;5.190;2023-03-14T13:58:48;100256.28;;;8.38;100.00
37860;BME280;23698;52.014;5.190;2023-03-14T14:01:38;100269.91;;;8.29;100.00
37860;BME280;23698;52.014;5.190;2023-03-14T14:04:25;100282.66;;;8.36;100.00
37860;BME280;23698;52.014;5.190;2023-03-14T14:07:15;100284.41;;;8.43;100.00
37860;BME280;23698;52.014;5.190;2023-03-14T14:10:05;100298.00;;;8.35;100.00
37860;BME280;23698;52.014;5.190;2023-03-14T14:12:54;100307.25;;;8.26;100.00
37860;BME280;23698;52.014;5.190;2023-03-14T14:15:44;100321.34;;;8.21;100.00
37860;BME280;23698;52.014;5.190;2023-03-14T14:18:35;100328.56;;;8.36;100.00
37860;BME280;23698;52.014;5.190;2023-03-14T14:21:22;100327.75;;;8.05;100.00
37860;BME280;23698;52.014;5.190;2023-03-14T14:24:12;100340.72;;;7.95;100.00
37860;BME280;23698;52.014;5.190;2023-03-14T14:27:02;100349.28;;;7.99;100.00
37860;BME280;23698;52.014;5.190;2023-03-14T14:29:59;100345.66;;;7.77;100.00
37860;BME280;23698;52.014;5.190;2023-03-14T14:32:47;100363.63;;;7.69;100.00
37860;BME280;23698;52.014;5.190;2023-03-14T14:35:35;100371.19;;;7.51;100.00
37860;BME280;23698;52.014;5.190;2023-03-14T14:38:22;100382.75;;;7.45;100.00
37860;BME280;23698;52.014;5.190;2023-03-14T14:41:11;100393.69;;;7.43;100.00
37860;BME280;23698;52.014;5.190;2023-03-14T14:43:58;100404.50;;;7.43;100.00
37860;BME280;23698;52.014;5.190;2023-03-14T14:46:45;100413.75;;;7.41;100.00
37860;BME280;23698;52.014;5.190;2023-03-14T14:49:34;100416.38;;;7.34;100.00
37860;BME280;23698;52.014;5.190;2023-03-14T14:52:31;100421.03;;;7.40;100.00
37860;BME280;23698;52.014;5.190;2023-03-14T14:55:19;100423.19;;;7.22;100.00
37860;BME280;23698;52.014;5.190;2023-03-14T14:58:17;100423.91;;;7.15;100.00
37860;BME280;23698;52.014;5.190;2023-03-14T15:01:10;100439.72;;;6.95;100.00
37860;BME280;23698;52.014;5.190;2023-03-14T15:03:58;100441.53;;;7.03;100.00